Hudson Bay, Canada
Current Conditions -  °F | °C
As of 12:00 AM on Saturday 20 Dec 2014 (Local Time) from CYBU Reporting Station
Overcast Overcast  
Wind Chill: -13°   Ceiling: 700
Heat Index: -7°   Visibility: 9mi
Dew Point: -8°   Wind: 8mph
Humidity: 93%   Direction: 180°S
Pressure: 29.94"   Gusts: NA
Location:  52.86°N, 102.39°W
Report Text: CYBU 200600Z AUTO 18007KT 9SM OVC007 M07/M08 A2994 RMK SLP167
Loading
Personal Weather Stations






























Interactive Weather Map New forecast layout! Learn more

10-Day Weather Forecast

Advertisements
Track Severe Weather on mobile